sensor_id;sensor_type;location;lat;lon;timestamp;pressure;altitude;pressure_sealevel;temperature;humidity
54172;BME280;40076;52.354;4.970;2023-02-17T00:00:58;101876.28;;;10.48;100.00
54172;BME280;40076;52.354;4.970;2023-02-17T00:03:24;101875.47;;;10.47;100.00
54172;BME280;40076;52.354;4.970;2023-02-17T00:05:50;101877.88;;;10.49;100.00
54172;BME280;40076;52.354;4.970;2023-02-17T00:08:15;101882.19;;;10.50;100.00
54172;BME280;40076;52.354;4.970;2023-02-17T00:10:41;101886.81;;;10.49;100.00
54172;BME280;40076;52.354;4.970;2023-02-17T00:13:06;101884.09;;;10.49;100.00
54172;BME280;40076;52.354;4.970;2023-02-17T00:15:32;101888.41;;;10.50;100.00
54172;BME280;40076;52.354;4.970;2023-02-17T00:17:57;101887.31;;;10.51;100.00
54172;BME280;40076;52.354;4.970;2023-02-17T00:20:22;101889.22;;;10.51;100.00
54172;BME280;40076;52.354;4.970;2023-02-17T00:22:47;101884.34;;;10.53;100.00
54172;BME280;40076;52.354;4.970;2023-02-17T00:25:13;101884.03;;;10.54;100.00
54172;BME280;40076;52.354;4.970;2023-02-17T00:27:38;101886.72;;;10.54;100.00
54172;BME280;40076;52.354;4.970;2023-02-17T00:30:04;101886.44;;;10.56;100.00
54172;BME280;40076;52.354;4.970;2023-02-17T00:32:29;101885.63;;;10.55;100.00
54172;BME280;40076;52.354;4.970;2023-02-17T00:34:55;101880.03;;;10.52;100.00
54172;BME280;40076;52.354;4.970;2023-02-17T00:37:22;101875.91;;;10.54;100.00
54172;BME280;40076;52.354;4.970;2023-02-17T00:39:48;101871.59;;;10.53;100.00
54172;BME280;40076;52.354;4.970;2023-02-17T00:42:13;101862.19;;;10.51;100.00
54172;BME280;40076;52.354;4.970;2023-02-17T00:44:38;101867.59;;;10.51;100.00
54172;BME280;40076;52.354;4.970;2023-02-17T00:47:04;101865.19;;;10.49;100.00
54172;BME280;40076;52.354;4.970;2023-02-17T00:49:29;101862.47;;;10.49;100.00
54172;BME280;40076;52.354;4.970;2023-02-17T00:51:58;101851.97;;;10.48;100.00
54172;BME280;40076;52.354;4.970;2023-02-17T00:54:24;101856.28;;;10.49;100.00
54172;BME280;40076;52.354;4.970;2023-02-17T00:56:50;101855.47;;;10.48;100.00
54172;BME280;40076;52.354;4.970;2023-02-17T00:59:15;101862.78;;;10.48;100.00
54172;BME280;40076;52.354;4.970;2023-02-17T01:01:43;101874.09;;;10.50;100.00
54172;BME280;40076;52.354;4.970;2023-02-17T01:04:08;101862.19;;;10.51;100.00
54172;BME280;40076;52.354;4.970;2023-02-17T01:06:36;101869.69;;;10.54;100.00
54172;BME280;40076;52.354;4.970;2023-02-17T01:09:03;101864.28;;;10.54;100.00
54172;BME280;40076;52.354;4.970;2023-02-17T01:11:30;101865.09;;;10.54;100.00
54172;BME280;40076;52.354;4.970;2023-02-17T01:13:56;101865.91;;;10.55;100.00
54172;BME280;40076;52.354;4.970;2023-02-17T01:16:28;101858.09;;;10.53;100.00
54172;BME280;40076;52.354;4.970;2023-02-17T01:18:55;101860.50;;;10.55;100.00
54172;BME280;40076;52.354;4.970;2023-02-17T01:21:22;101854.81;;;10.56;100.00
54172;BME280;40076;52.354;4.970;2023-02-17T01:23:50;101857.50;;;10.56;100.00
54172;BME280;40076;52.354;4.970;2023-02-17T01:26:18;101849.41;;;10.56;100.00
54172;BME280;40076;52.354;4.970;2023-02-17T01:28:44;101848.31;;;10.57;100.00
54172;BME280;40076;52.354;4.970;2023-02-17T01:31:10;101861.53;;;10.59;100.00
54172;BME280;40076;52.354;4.970;2023-02-17T01:33:37;101860.72;;;10.58;100.00
54172;BME280;40076;52.354;4.970;2023-02-17T01:36:05;101853.44;;;10.59;100.00
54172;BME280;40076;52.354;4.970;2023-02-17T01:38:31;101862.03;;;10.61;100.00
54172;BME280;40076;52.354;4.970;2023-02-17T01:40:57;101866.13;;;10.58;100.00
54172;BME280;40076;52.354;4.970;2023-02-17T01:43:22;101858.03;;;10.58;100.00
54172;BME280;40076;52.354;4.970;2023-02-17T01:45:58;101846.41;;;10.58;100.00
54172;BME280;40076;52.354;4.970;2023-02-17T01:48:33;101844.81;;;10.57;100.00
54172;BME280;40076;52.354;4.970;2023-02-17T01:51:06;101836.97;;;10.55;100.00
54172;BME280;40076;52.354;4.970;2023-02-17T01:53:43;101839.16;;;10.53;100.00
54172;BME280;40076;52.354;4.970;2023-02-17T01:56:10;101827.88;;;10.51;100.00
54172;BME280;40076;52.354;4.970;2023-02-17T01:58:39;101826.25;;;10.50;100.00
54172;BME280;40076;52.354;4.970;2023-02-17T02:01:06;101814.66;;;10.50;100.00
54172;BME280;40076;52.354;4.970;2023-02-17T02:03:32;101819.53;;;10.48;100.00
54172;BME280;40076;52.354;4.970;2023-02-17T02:06:03;101809.34;;;10.44;100.00
54172;BME280;40076;52.354;4.970;2023-02-17T02:08:36;101804.50;;;10.41;100.00
54172;BME280;40076;52.354;4.970;2023-02-17T02:11:03;101803.69;;;10.41;100.00
54172;BME280;40076;52.354;4.970;2023-02-17T02:13:28;101810.19;;;10.40;100.00
54172;BME280;40076;52.354;4.970;2023-02-17T02:16:08;101802.69;;;10.37;100.00
54172;BME280;40076;52.354;4.970;2023-02-17T02:18:48;101802.19;;;10.35;100.00
54172;BME280;40076;52.354;4.970;2023-02-17T02:21:52;101801.66;;;10.33;100.00
54172;BME280;40076;52.354;4.970;2023-02-17T02:27:11;101800.13;;;10.27;100.00
54172;BME280;40076;52.354;4.970;2023-02-17T02:29:57;101805.03;;;10.25;100.00
54172;BME280;40076;52.354;4.970;2023-02-17T02:35:46;101799.41;;;10.21;100.00
54172;BME280;40076;52.354;4.970;2023-02-17T02:38:27;101793.22;;;10.16;100.00
54172;BME280;40076;52.354;4.970;2023-02-17T02:41:14;101787.84;;;10.16;100.00
54172;BME280;40076;52.354;4.970;2023-02-17T02:43:47;101782.44;;;10.16;100.00
54172;BME280;40076;52.354;4.970;2023-02-17T02:46:12;101773.84;;;10.14;100.00
54172;BME280;40076;52.354;4.970;2023-02-17T02:48:38;101773.84;;;10.14;100.00
54172;BME280;40076;52.354;4.970;2023-02-17T02:54:23;101792.22;;;10.12;100.00
54172;BME280;40076;52.354;4.970;2023-02-17T02:57:09;101777.41;;;10.09;100.00
54172;BME280;40076;52.354;4.970;2023-02-17T02:59:58;101776.38;;;10.05;100.00
54172;BME280;40076;52.354;4.970;2023-02-17T03:02:45;101776.16;;;10.01;100.00
54172;BME280;40076;52.354;4.970;2023-02-17T03:08:16;101765.34;;;10.01;100.00
54172;BME280;40076;52.354;4.970;2023-02-17T03:10:46;101756.44;;;10.01;100.00
54172;BME280;40076;52.354;4.970;2023-02-17T03:13:12;101746.75;;;10.00;100.00
54172;BME280;40076;52.354;4.970;2023-02-17T03:15:37;101744.84;;;10.00;100.00
54172;BME280;40076;52.354;4.970;2023-02-17T03:18:05;101739.75;;;9.99;100.00
54172;BME280;40076;52.354;4.970;2023-02-17T03:20:37;101743.25;;;9.99;100.00
54172;BME280;40076;52.354;4.970;2023-02-17T03:23:04;101734.38;;;9.99;100.00
54172;BME280;40076;52.354;4.970;2023-02-17T03:25:29;101721.97;;;9.98;100.00
54172;BME280;40076;52.354;4.970;2023-02-17T03:27:55;101735.44;;;9.98;100.00
54172;BME280;40076;52.354;4.970;2023-02-17T03:30:20;101731.94;;;9.97;100.00
54172;BME280;40076;52.354;4.970;2023-02-17T03:32:45;101724.94;;;9.96;100.00
54172;BME280;40076;52.354;4.970;2023-02-17T03:35:11;101727.94;;;9.95;100.00
54172;BME280;40076;52.354;4.970;2023-02-17T03:37:37;101725.03;;;9.91;100.00
54172;BME280;40076;52.354;4.970;2023-02-17T03:40:04;101734.22;;;9.90;100.00
54172;BME280;40076;52.354;4.970;2023-02-17T03:42:32;101732.31;;;9.91;100.00
54172;BME280;40076;52.354;4.970;2023-02-17T03:44:57;101729.63;;;9.91;100.00
54172;BME280;40076;52.354;4.970;2023-02-17T03:47:22;101734.22;;;9.90;100.00
54172;BME280;40076;52.354;4.970;2023-02-17T03:49:48;101726.69;;;9.87;100.00
54172;BME280;40076;52.354;4.970;2023-02-17T03:52:14;101725.59;;;9.88;100.00
54172;BME280;40076;52.354;4.970;2023-02-17T03:54:39;101729.66;;;9.86;100.00
54172;BME280;40076;52.354;4.970;2023-02-17T03:57:08;101731.56;;;9.85;100.00
54172;BME280;40076;52.354;4.970;2023-02-17T03:59:34;101735.06;;;9.86;100.00
54172;BME280;40076;52.354;4.970;2023-02-17T04:02:00;101733.97;;;9.87;100.00
54172;BME280;40076;52.354;4.970;2023-02-17T04:04:26;101731.81;;;9.89;100.00
54172;BME280;40076;52.354;4.970;2023-02-17T04:06:51;101741.78;;;9.88;100.00
54172;BME280;40076;52.354;4.970;2023-02-17T04:09:16;101739.91;;;9.89;100.00
54172;BME280;40076;52.354;4.970;2023-02-17T04:11:42;101741.78;;;9.88;100.00
54172;BME280;40076;52.354;4.970;2023-02-17T04:14:08;101739.63;;;9.90;100.00
54172;BME280;40076;52.354;4.970;2023-02-17T04:16:33;101732.00;;;9.92;100.00
54172;BME280;40076;52.354;4.970;2023-02-17T04:18:58;101722.31;;;9.91;100.00
54172;BME280;40076;52.354;4.970;2023-02-17T04:21:24;101727.72;;;9.91;100.00
54172;BME280;40076;52.354;4.970;2023-02-17T04:23:50;101720.41;;;9.92;100.00
54172;BME280;40076;52.354;4.970;2023-02-17T04:26:15;101715.81;;;9.92;100.00
54172;BME280;40076;52.354;4.970;2023-02-17T04:28:42;101723.91;;;9.92;100.00
54172;BME280;40076;52.354;4.970;2023-02-17T04:31:08;101725.50;;;9.93;100.00
54172;BME280;40076;52.354;4.970;2023-02-17T04:33:33;101710.94;;;9.94;100.00
54172;BME280;40076;52.354;4.970;2023-02-17T04:35:59;101716.31;;;9.94;100.00
54172;BME280;40076;52.354;4.970;2023-02-17T04:38:29;101707.13;;;9.95;100.00
54172;BME280;40076;52.354;4.970;2023-02-17T04:40:55;101699.84;;;9.96;100.00
54172;BME280;40076;52.354;4.970;2023-02-17T04:43:22;101708.75;;;9.96;100.00
54172;BME280;40076;52.354;4.970;2023-02-17T04:45:48;101706.84;;;9.97;100.00
54172;BME280;40076;52.354;4.970;2023-02-17T04:48:13;101713.06;;;9.97;100.00
54172;BME280;40076;52.354;4.970;2023-02-17T04:50:39;101718.94;;;9.99;100.00
54172;BME280;40076;52.354;4.970;2023-02-17T04:53:04;101722.75;;;9.98;100.00
54172;BME280;40076;52.354;4.970;2023-02-17T04:55:30;101728.16;;;9.98;100.00
54172;BME280;40076;52.354;4.970;2023-02-17T04:57:55;101735.13;;;9.99;100.00
54172;BME280;40076;52.354;4.970;2023-02-17T05:00:20;101735.38;;;10.03;100.00
54172;BME280;40076;52.354;4.970;2023-02-17T05:02:46;101729.16;;;10.02;100.00
54172;BME280;40076;52.354;4.970;2023-02-17T05:05:11;101725.38;;;10.03;100.00
54172;BME280;40076;52.354;4.970;2023-02-17T05:07:42;101726.97;;;10.04;100.00
54172;BME280;40076;52.354;4.970;2023-02-17T05:10:08;101727.19;;;10.08;100.00
54172;BME280;40076;52.354;4.970;2023-02-17T05:12:33;101715.56;;;10.07;100.00
54172;BME280;40076;52.354;4.970;2023-02-17T05:14:59;101718.28;;;10.07;100.00
54172;BME280;40076;52.354;4.970;2023-02-17T05:17:25;101705.00;;;10.11;100.00
54172;BME280;40076;52.354;4.970;2023-02-17T05:19:50;101711.50;;;10.10;100.00
54172;BME280;40076;52.354;4.970;2023-02-17T05:22:15;101721.22;;;10.11;100.00
54172;BME280;40076;52.354;4.970;2023-02-17T05:24:41;101704.44;;;10.14;100.00
54172;BME280;40076;52.354;4.970;2023-02-17T05:27:07;101694.41;;;10.15;100.00
54172;BME280;40076;52.354;4.970;2023-02-17T05:29:33;101696.00;;;10.16;100.00
54172;BME280;40076;52.354;4.970;2023-02-17T05:31:58;101694.41;;;10.15;100.00
54172;BME280;40076;52.354;4.970;2023-02-17T05:34:23;101679.53;;;10.17;100.00
54172;BME280;40076;52.354;4.970;2023-02-17T05:36:49;101678.44;;;10.18;100.00
54172;BME280;40076;52.354;4.970;2023-02-17T05:39:14;101683.84;;;10.18;100.00
54172;BME280;40076;52.354;4.970;2023-02-17T05:41:39;101676.28;;;10.20;100.00
54172;BME280;40076;52.354;4.970;2023-02-17T05:44:07;101688.97;;;10.20;100.00
54172;BME280;40076;52.354;4.970;2023-02-17T05:46:32;101680.06;;;10.19;100.00
54172;BME280;40076;52.354;4.970;2023-02-17T05:48:58;101684.09;;;10.22;100.00
54172;BME280;40076;52.354;4.970;2023-02-17T05:51:23;101686.78;;;10.22;100.00
54172;BME280;40076;52.354;4.970;2023-02-17T05:53:49;101679.16;;;10.24;100.00
54172;BME280;40076;52.354;4.970;2023-02-17T05:56:14;101687.25;;;10.24;100.00
54172;BME280;40076;52.354;4.970;2023-02-17T05:58:42;101705.09;;;10.25;100.00
54172;BME280;40076;52.354;4.970;2023-02-17T06:01:09;101688.88;;;10.25;100.00
54172;BME280;40076;52.354;4.970;2023-02-17T06:03:34;101688.88;;;10.25;100.00
54172;BME280;40076;52.354;4.970;2023-02-17T06:06:00;101679.69;;;10.26;100.00
54172;BME280;40076;52.354;4.970;2023-02-17T06:08:25;101679.38;;;10.27;100.00
54172;BME280;40076;52.354;4.970;2023-02-17T06:10:54;101664.28;;;10.26;100.00
54172;BME280;40076;52.354;4.970;2023-02-17T06:13:20;101668.59;;;10.27;100.00
54172;BME280;40076;52.354;4.970;2023-02-17T06:15:46;101669.69;;;10.26;100.00
54172;BME280;40076;52.354;4.970;2023-02-17T06:18:12;101664.28;;;10.26;100.00
54172;BME280;40076;52.354;4.970;2023-02-17T06:20:37;101663.97;;;10.28;100.00
54172;BME280;40076;52.354;4.970;2023-02-17T06:23:03;101657.50;;;10.29;100.00
54172;BME280;40076;52.354;4.970;2023-02-17T06:25:28;101663.47;;;10.26;100.00
54172;BME280;40076;52.354;4.970;2023-02-17T06:27:53;101657.50;;;10.29;100.00
54172;BME280;40076;52.354;4.970;2023-02-17T06:30:19;101653.19;;;10.28;100.00
54172;BME280;40076;52.354;4.970;2023-02-17T06:32:45;101649.38;;;10.29;100.00
54172;BME280;40076;52.354;4.970;2023-02-17T06:35:11;101649.88;;;10.31;100.00
54172;BME280;40076;52.354;4.970;2023-02-17T06:37:36;101649.88;;;10.31;100.00
54172;BME280;40076;52.354;4.970;2023-02-17T06:40:03;101638.25;;;10.30;100.00
54172;BME280;40076;52.354;4.970;2023-02-17T06:42:29;101629.84;;;10.32;100.00
54172;BME280;40076;52.354;4.970;2023-02-17T06:44:54;101630.66;;;10.32;100.00
54172;BME280;40076;52.354;4.970;2023-02-17T06:47:22;101629.56;;;10.33;100.00
54172;BME280;40076;52.354;4.970;2023-02-17T06:49:47;101640.09;;;10.35;100.00
54172;BME280;40076;52.354;4.970;2023-02-17T06:52:12;101648.69;;;10.37;100.00
54172;BME280;40076;52.354;4.970;2023-02-17T06:54:38;101650.28;;;10.38;100.00
54172;BME280;40076;52.354;4.970;2023-02-17T06:57:03;101650.00;;;10.39;100.00
54172;BME280;40076;52.354;4.970;2023-02-17T06:59:31;101657.81;;;10.41;100.00
54172;BME280;40076;52.354;4.970;2023-02-17T07:01:56;101651.31;;;10.42;100.00
54172;BME280;40076;52.354;4.970;2023-02-17T07:04:22;101660.72;;;10.44;100.00
54172;BME280;40076;52.354;4.970;2023-02-17T07:06:47;101668.84;;;10.44;100.00
54172;BME280;40076;52.354;4.970;2023-02-17T07:09:12;101664.22;;;10.45;100.00
54172;BME280;40076;52.354;4.970;2023-02-17T07:11:39;101654.72;;;10.48;100.00
54172;BME280;40076;52.354;4.970;2023-02-17T07:14:06;101643.09;;;10.47;100.00
54172;BME280;40076;52.354;4.970;2023-02-17T07:16:32;101651.72;;;10.49;100.00
54172;BME280;40076;52.354;4.970;2023-02-17T07:18:57;101637.91;;;10.51;100.00
54172;BME280;40076;52.354;4.970;2023-02-17T07:21:23;101633.78;;;10.53;100.00
54172;BME280;40076;52.354;4.970;2023-02-17T07:23:48;101633.50;;;10.55;100.00
54172;BME280;40076;52.354;4.970;2023-02-17T07:26:13;101649.41;;;10.56;100.00
54172;BME280;40076;52.354;4.970;2023-02-17T07:28:39;101632.09;;;10.57;100.00
54172;BME280;40076;52.354;4.970;2023-02-17T07:31:10;101633.72;;;10.58;100.00
54172;BME280;40076;52.354;4.970;2023-02-17T07:33:36;101628.03;;;10.60;100.00
54172;BME280;40076;52.354;4.970;2023-02-17T07:36:09;101645.03;;;10.60;100.00
54172;BME280;40076;52.354;4.970;2023-02-17T07:38:36;101633.44;;;10.60;100.00
54172;BME280;40076;52.354;4.970;2023-02-17T07:41:07;101608.78;;;10.61;100.00
54172;BME280;40076;52.354;4.970;2023-02-17T07:43:33;101610.38;;;10.62;100.00
54172;BME280;40076;52.354;4.970;2023-02-17T07:45:58;101629.81;;;10.64;100.00
54172;BME280;40076;52.354;4.970;2023-02-17T07:48:23;101641.13;;;10.66;100.00
54172;BME280;40076;52.354;4.970;2023-02-17T07:50:49;101636.22;;;10.68;100.00
54172;BME280;40076;52.354;4.970;2023-02-17T07:53:14;101652.44;;;10.68;100.00
54172;BME280;40076;52.354;4.970;2023-02-17T07:55:39;101651.03;;;10.71;100.00
54172;BME280;40076;52.354;4.970;2023-02-17T07:58:04;101657.75;;;10.73;100.00
54172;BME280;40076;52.354;4.970;2023-02-17T08:00:30;101666.97;;;10.72;100.00
54172;BME280;40076;52.354;4.970;2023-02-17T08:02:55;101662.88;;;10.75;100.00
54172;BME280;40076;52.354;4.970;2023-02-17T08:05:20;101668.28;;;10.75;100.00
54172;BME280;40076;52.354;4.970;2023-02-17T08:07:46;101688.47;;;10.77;100.00
54172;BME280;40076;52.354;4.970;2023-02-17T08:10:12;101688.47;;;10.77;100.00
54172;BME280;40076;52.354;4.970;2023-02-17T08:12:56;101690.09;;;10.78;100.00
54172;BME280;40076;52.354;4.970;2023-02-17T08:15:24;101685.78;;;10.77;100.00
54172;BME280;40076;52.354;4.970;2023-02-17T08:17:49;101668.47;;;10.78;100.00
54172;BME280;40076;52.354;4.970;2023-02-17T08:20:14;101663.84;;;10.79;100.00
54172;BME280;40076;52.354;4.970;2023-02-17T08:22:42;101681.19;;;10.78;100.00
54172;BME280;40076;52.354;4.970;2023-02-17T08:25:07;101693.88;;;10.77;100.00
54172;BME280;40076;52.354;4.970;2023-02-17T08:27:32;101715.81;;;10.76;100.00
54172;BME280;40076;52.354;4.970;2023-02-17T08:29:58;101716.03;;;10.79;100.00
54172;BME280;40076;52.354;4.970;2023-02-17T08:32:32;101707.91;;;10.79;100.00
54172;BME280;40076;52.354;4.970;2023-02-17T08:34:58;101703.59;;;10.78;100.00
54172;BME280;40076;52.354;4.970;2023-02-17T08:37:23;101704.13;;;10.80;100.00
54172;BME280;40076;52.354;4.970;2023-02-17T08:40:06;101687.38;;;10.78;100.00
54172;BME280;40076;52.354;4.970;2023-02-17T08:42:31;101686.28;;;10.79;100.00
54172;BME280;40076;52.354;4.970;2023-02-17T08:44:57;101698.72;;;10.80;100.00
54172;BME280;40076;52.354;4.970;2023-02-17T08:47:22;101688.19;;;10.79;100.00
54172;BME280;40076;52.354;4.970;2023-02-17T08:49:47;101713.03;;;10.81;100.00
54172;BME280;40076;52.354;4.970;2023-02-17T08:52:12;101701.41;;;10.80;100.00
54172;BME280;40076;52.354;4.970;2023-02-17T08:54:45;101707.63;;;10.81;100.00
54172;BME280;40076;52.354;4.970;2023-02-17T08:57:10;101688.88;;;10.84;100.00
54172;BME280;40076;52.354;4.970;2023-02-17T08:59:36;101688.88;;;10.84;100.00
54172;BME280;40076;52.354;4.970;2023-02-17T09:02:01;101686.69;;;10.87;100.00
54172;BME280;40076;52.354;4.970;2023-02-17T09:04:27;101705.03;;;10.90;100.00
54172;BME280;40076;52.354;4.970;2023-02-17T09:06:59;101686.09;;;10.90;100.00
54172;BME280;40076;52.354;4.970;2023-02-17T09:09:26;101688.47;;;10.91;100.00
54172;BME280;40076;52.354;4.970;2023-02-17T09:11:53;101664.66;;;10.93;100.00
54172;BME280;40076;52.354;4.970;2023-02-17T09:14:19;101669.78;;;10.95;100.00
54172;BME280;40076;52.354;4.970;2023-02-17T09:16:48;101691.41;;;10.95;100.00
54172;BME280;40076;52.354;4.970;2023-02-17T09:19:13;101669.19;;;10.98;100.00
54172;BME280;40076;52.354;4.970;2023-02-17T09:21:38;101676.97;;;10.99;100.00
54172;BME280;40076;52.354;4.970;2023-02-17T09:24:04;101698.31;;;11.01;100.00
54172;BME280;40076;52.354;4.970;2023-02-17T09:26:29;101682.09;;;11.01;100.00
54172;BME280;40076;52.354;4.970;2023-02-17T09:28:55;101660.66;;;11.04;100.00
54172;BME280;40076;52.354;4.970;2023-02-17T09:31:24;101664.16;;;11.05;100.00
54172;BME280;40076;52.354;4.970;2023-02-17T09:33:50;101671.66;;;11.08;100.00
54172;BME280;40076;52.354;4.970;2023-02-17T09:36:18;101648.13;;;11.08;100.00
54172;BME280;40076;52.354;4.970;2023-02-17T09:38:44;101653.75;;;11.12;100.00
54172;BME280;40076;52.354;4.970;2023-02-17T09:43:50;101666.66;;;11.15;100.00
54172;BME280;40076;52.354;4.970;2023-02-17T09:46:26;101663.66;;;11.16;100.00
54172;BME280;40076;52.354;4.970;2023-02-17T09:48:55;101675.78;;;11.19;100.00
54172;BME280;40076;52.354;4.970;2023-02-17T09:51:26;101696.31;;;11.20;100.00
54172;BME280;40076;52.354;4.970;2023-02-17T09:54:22;101689.47;;;11.22;100.00
54172;BME280;40076;52.354;4.970;2023-02-17T09:56:50;101703.22;;;11.26;100.00
54172;BME280;40076;52.354;4.970;2023-02-17T09:59:21;101692.09;;;11.28;100.00
54172;BME280;40076;52.354;4.970;2023-02-17T10:01:49;101700.22;;;11.28;100.00
54172;BME280;40076;52.354;4.970;2023-02-17T10:04:22;101691.78;;;11.29;100.00
54172;BME280;40076;52.354;4.970;2023-02-17T10:06:50;101704.41;;;11.34;100.00
54172;BME280;40076;52.354;4.970;2023-02-17T10:09:28;101697.69;;;11.31;100.00
54172;BME280;40076;52.354;4.970;2023-02-17T10:12:05;101704.72;;;11.32;100.00
54172;BME280;40076;52.354;4.970;2023-02-17T10:17:42;101726.75;;;11.39;100.00
54172;BME280;40076;52.354;4.970;2023-02-17T10:20:11;101708.31;;;11.41;100.00
54172;BME280;40076;52.354;4.970;2023-02-17T10:22:38;101716.63;;;11.45;100.00
54172;BME280;40076;52.354;4.970;2023-02-17T10:25:14;101693.56;;;11.47;100.00
54172;BME280;40076;52.354;4.970;2023-02-17T10:28:08;101709.50;;;11.49;100.00
54172;BME280;40076;52.354;4.970;2023-02-17T10:30:51;101703.81;;;11.50;100.00
54172;BME280;40076;52.354;4.970;2023-02-17T10:33:27;101720.22;;;11.54;100.00
54172;BME280;40076;52.354;4.970;2023-02-17T10:38:55;101722.63;;;11.55;100.00
54172;BME280;40076;52.354;4.970;2023-02-17T10:41:33;101721.22;;;11.58;100.00
54172;BME280;40076;52.354;4.970;2023-02-17T10:44:00;101740.97;;;11.58;100.00
54172;BME280;40076;52.354;4.970;2023-02-17T10:46:28;101726.31;;;11.59;100.00
54172;BME280;40076;52.354;4.970;2023-02-17T10:48:56;101759.59;;;11.60;100.00
54172;BME280;40076;52.354;4.970;2023-02-17T10:51:28;101752.78;;;11.63;100.00
54172;BME280;40076;52.354;4.970;2023-02-17T10:54:16;101747.09;;;11.64;100.00
54172;BME280;40076;52.354;4.970;2023-02-17T10:56:47;101750.38;;;11.61;100.00
54172;BME280;40076;52.354;4.970;2023-02-17T10:59:19;101770.34;;;11.65;100.00
54172;BME280;40076;52.354;4.970;2023-02-17T11:01:46;101773.06;;;11.65;100.00
54172;BME280;40076;52.354;4.970;2023-02-17T11:04:12;101791.38;;;11.68;100.00
54172;BME280;40076;52.354;4.970;2023-02-17T11:09:22;101792.00;;;11.65;100.00
54172;BME280;40076;52.354;4.970;2023-02-17T11:12:12;101786.28;;;11.67;100.00
54172;BME280;40076;52.354;4.970;2023-02-17T11:14:44;101798.50;;;11.64;100.00
54172;BME280;40076;52.354;4.970;2023-02-17T11:17:28;101777.44;;;11.61;100.00
54172;BME280;40076;52.354;4.970;2023-02-17T11:19:59;101775.03;;;11.59;100.00
54172;BME280;40076;52.354;4.970;2023-02-17T11:25:02;101768.84;;;11.59;100.00
54172;BME280;40076;52.354;4.970;2023-02-17T11:27:28;101794.31;;;11.58;100.00
54172;BME280;40076;52.354;4.970;2023-02-17T11:30:04;101774.06;;;11.55;100.00
54172;BME280;40076;52.354;4.970;2023-02-17T11:32:30;101796.22;;;11.57;100.00
54172;BME280;40076;52.354;4.970;2023-02-17T11:34:57;101787.59;;;11.55;100.00
54172;BME280;40076;52.354;4.970;2023-02-17T11:37:24;101796.22;;;11.57;100.00
54172;BME280;40076;52.354;4.970;2023-02-17T11:39:53;101806.53;;;11.55;100.00
54172;BME280;40076;52.354;4.970;2023-02-17T11:42:25;101821.97;;;11.55;100.00
54172;BME280;40076;52.354;4.970;2023-02-17T11:44:53;101813.66;;;11.51;100.00
54172;BME280;40076;52.354;4.970;2023-02-17T11:49:56;101812.66;;;11.47;100.00
54172;BME280;40076;52.354;4.970;2023-02-17T11:58:34;101808.97;;;11.43;100.00
54172;BME280;40076;52.354;4.970;2023-02-17T12:01:18;101828.50;;;11.40;100.00
54172;BME280;40076;52.354;4.970;2023-02-17T12:07:17;101825.78;;;11.40;100.00
54172;BME280;40076;52.354;4.970;2023-02-17T12:15:31;101806.25;;;11.43;100.00
54172;BME280;40076;52.354;4.970;2023-02-17T12:21:36;101809.13;;;11.47;100.00
54172;BME280;40076;52.354;4.970;2023-02-17T12:24:31;101828.88;;;11.47;100.00
54172;BME280;40076;52.354;4.970;2023-02-17T12:27:06;101837.53;;;11.49;100.00
54172;BME280;40076;52.354;4.970;2023-02-17T12:32:45;101843.91;;;11.53;100.00
54172;BME280;40076;52.354;4.970;2023-02-17T12:35:20;101842.31;;;11.52;100.00
54172;BME280;40076;52.354;4.970;2023-02-17T12:38:10;101842.53;;;11.56;100.00
54172;BME280;40076;52.354;4.970;2023-02-17T12:40:39;101845.75;;;11.58;100.00
54172;BME280;40076;52.354;4.970;2023-02-17T12:45:47;101834.59;;;11.59;100.00
54172;BME280;40076;52.354;4.970;2023-02-17T12:48:25;101851.97;;;11.58;100.00
54172;BME280;40076;52.354;4.970;2023-02-17T12:51:05;101845.53;;;11.54;100.00
54172;BME280;40076;52.354;4.970;2023-02-17T12:53:48;101870.09;;;11.58;100.00
54172;BME280;40076;52.354;4.970;2023-02-17T12:58:51;101858.19;;;11.59;100.00
54172;BME280;40076;52.354;4.970;2023-02-17T13:01:19;101834.13;;;11.57;100.00
54172;BME280;40076;52.354;4.970;2023-02-17T13:03:46;101836.19;;;11.60;100.00
54172;BME280;40076;52.354;4.970;2023-02-17T13:11:34;101861.66;;;11.59;100.00
54172;BME280;40076;52.354;4.970;2023-02-17T13:16:46;101861.38;;;11.61;100.00
54172;BME280;40076;52.354;4.970;2023-02-17T13:19:13;101856.75;;;11.61;100.00
54172;BME280;40076;52.354;4.970;2023-02-17T13:21:51;101866.50;;;11.63;100.00
54172;BME280;40076;52.354;4.970;2023-02-17T13:26:55;101867.00;;;11.65;100.00
54172;BME280;40076;52.354;4.970;2023-02-17T13:31:58;101869.41;;;11.66;100.00
54172;BME280;40076;52.354;4.970;2023-02-17T13:34:37;101865.59;;;11.67;100.00
54172;BME280;40076;52.354;4.970;2023-02-17T13:37:18;101879.63;;;11.69;100.00
54172;BME280;40076;52.354;4.970;2023-02-17T13:39:48;101856.69;;;11.67;100.00
54172;BME280;40076;52.354;4.970;2023-02-17T13:42:38;101849.66;;;11.66;100.00
54172;BME280;40076;52.354;4.970;2023-02-17T13:47:49;101869.59;;;11.70;100.00
54172;BME280;40076;52.354;4.970;2023-02-17T13:50:37;101854.16;;;11.70;100.00
54172;BME280;40076;52.354;4.970;2023-02-17T13:53:19;101860.88;;;11.73;100.00
54172;BME280;40076;52.354;4.970;2023-02-17T13:55:46;101844.84;;;11.76;100.00
54172;BME280;40076;52.354;4.970;2023-02-17T13:58:11;101834.91;;;11.72;100.00
54172;BME280;40076;52.354;4.970;2023-02-17T14:00:37;101859.28;;;11.72;100.00